sensor_id;sensor_type;location;lat;lon;timestamp;temperature;humidity
57753;DHT22;43583;53.132;6.574;2023-07-13T00:01:15;14.60;99.90
57753;DHT22;43583;53.132;6.574;2023-07-13T00:03:41;14.60;99.90
57753;DHT22;43583;53.132;6.574;2023-07-13T00:06:07;14.70;99.90
57753;DHT22;43583;53.132;6.574;2023-07-13T00:08:34;14.70;99.90
57753;DHT22;43583;53.132;6.574;2023-07-13T00:11:01;14.70;99.90
57753;DHT22;43583;53.132;6.574;2023-07-13T00:13:27;14.70;99.90
57753;DHT22;43583;53.132;6.574;2023-07-13T00:15:53;14.80;99.90
57753;DHT22;43583;53.132;6.574;2023-07-13T00:18:19;14.80;99.90
57753;DHT22;43583;53.132;6.574;2023-07-13T00:20:45;14.80;99.90
57753;DHT22;43583;53.132;6.574;2023-07-13T00:23:11;14.90;99.90
57753;DHT22;43583;53.132;6.574;2023-07-13T00:25:36;14.90;99.90
57753;DHT22;43583;53.132;6.574;2023-07-13T00:28:02;14.90;99.90
57753;DHT22;43583;53.132;6.574;2023-07-13T00:30:28;15.00;99.90
57753;DHT22;43583;53.132;6.574;2023-07-13T00:32:53;15.10;99.90
57753;DHT22;43583;53.132;6.574;2023-07-13T00:35:19;15.10;99.90
57753;DHT22;43583;53.132;6.574;2023-07-13T00:37:45;15.20;99.90
57753;DHT22;43583;53.132;6.574;2023-07-13T00:40:12;15.20;99.90
57753;DHT22;43583;53.132;6.574;2023-07-13T00:42:39;15.20;99.90
57753;DHT22;43583;53.132;6.574;2023-07-13T00:47:32;15.30;99.90
57753;DHT22;43583;53.132;6.574;2023-07-13T00:49:58;15.30;99.90
57753;DHT22;43583;53.132;6.574;2023-07-13T00:52:24;15.40;99.90
57753;DHT22;43583;53.132;6.574;2023-07-13T00:54:49;15.30;99.90
57753;DHT22;43583;53.132;6.574;2023-07-13T00:57:18;15.40;99.90
57753;DHT22;43583;53.132;6.574;2023-07-13T00:59:49;15.40;99.90
57753;DHT22;43583;53.132;6.574;2023-07-13T01:02:16;15.40;99.90
57753;DHT22;43583;53.132;6.574;2023-07-13T01:04:42;15.40;99.90
57753;DHT22;43583;53.132;6.574;2023-07-13T01:07:09;15.40;99.90
57753;DHT22;43583;53.132;6.574;2023-07-13T01:09:36;15.30;99.90
57753;DHT22;43583;53.132;6.574;2023-07-13T01:12:01;15.30;99.90
57753;DHT22;43583;53.132;6.574;2023-07-13T01:14:27;15.30;99.90
57753;DHT22;43583;53.132;6.574;2023-07-13T01:16:53;15.20;99.90
57753;DHT22;43583;53.132;6.574;2023-07-13T01:22:03;15.20;99.90
57753;DHT22;43583;53.132;6.574;2023-07-13T01:24:28;15.20;99.90
57753;DHT22;43583;53.132;6.574;2023-07-13T01:26:54;15.20;99.90
57753;DHT22;43583;53.132;6.574;2023-07-13T01:29:20;15.20;99.90
57753;DHT22;43583;53.132;6.574;2023-07-13T01:31:46;15.20;99.90
57753;DHT22;43583;53.132;6.574;2023-07-13T01:34:12;15.20;99.90
57753;DHT22;43583;53.132;6.574;2023-07-13T01:36:38;15.20;99.90
57753;DHT22;43583;53.132;6.574;2023-07-13T01:39:04;15.30;99.90
57753;DHT22;43583;53.132;6.574;2023-07-13T01:41:30;15.30;99.90
57753;DHT22;43583;53.132;6.574;2023-07-13T01:43:55;15.30;99.90
57753;DHT22;43583;53.132;6.574;2023-07-13T01:46:21;15.30;99.90
57753;DHT22;43583;53.132;6.574;2023-07-13T01:48:47;15.40;99.90
57753;DHT22;43583;53.132;6.574;2023-07-13T01:51:12;15.40;99.90
57753;DHT22;43583;53.132;6.574;2023-07-13T01:53:38;15.40;99.90
57753;DHT22;43583;53.132;6.574;2023-07-13T01:56:04;15.40;99.90
57753;DHT22;43583;53.132;6.574;2023-07-13T01:58:30;15.50;99.90
57753;DHT22;43583;53.132;6.574;2023-07-13T02:00:55;15.50;99.90
57753;DHT22;43583;53.132;6.574;2023-07-13T02:03:21;15.50;99.90
57753;DHT22;43583;53.132;6.574;2023-07-13T02:05:46;15.50;99.90
57753;DHT22;43583;53.132;6.574;2023-07-13T02:08:12;15.50;99.90
57753;DHT22;43583;53.132;6.574;2023-07-13T02:10:37;15.50;99.90
57753;DHT22;43583;53.132;6.574;2023-07-13T02:13:05;15.50;99.90
57753;DHT22;43583;53.132;6.574;2023-07-13T02:15:31;15.50;99.90
57753;DHT22;43583;53.132;6.574;2023-07-13T02:17:57;15.50;99.90
57753;DHT22;43583;53.132;6.574;2023-07-13T02:20:24;15.60;99.90
57753;DHT22;43583;53.132;6.574;2023-07-13T02:22:50;15.50;99.90
57753;DHT22;43583;53.132;6.574;2023-07-13T02:25:15;15.50;99.90
57753;DHT22;43583;53.132;6.574;2023-07-13T02:27:41;15.50;99.90
57753;DHT22;43583;53.132;6.574;2023-07-13T02:30:08;15.50;99.90
57753;DHT22;43583;53.132;6.574;2023-07-13T02:32:33;15.50;99.90
57753;DHT22;43583;53.132;6.574;2023-07-13T02:35:00;15.50;99.90
57753;DHT22;43583;53.132;6.574;2023-07-13T02:37:26;15.50;99.90
57753;DHT22;43583;53.132;6.574;2023-07-13T02:39:51;15.40;99.90
57753;DHT22;43583;53.132;6.574;2023-07-13T02:42:17;15.40;99.90
57753;DHT22;43583;53.132;6.574;2023-07-13T02:44:43;15.30;99.90
57753;DHT22;43583;53.132;6.574;2023-07-13T02:47:08;15.30;99.90
57753;DHT22;43583;53.132;6.574;2023-07-13T02:49:34;15.20;99.90
57753;DHT22;43583;53.132;6.574;2023-07-13T02:51:59;15.20;99.90
57753;DHT22;43583;53.132;6.574;2023-07-13T02:54:25;15.10;99.90
57753;DHT22;43583;53.132;6.574;2023-07-13T02:56:50;15.10;99.90
57753;DHT22;43583;53.132;6.574;2023-07-13T02:59:16;15.00;99.90
57753;DHT22;43583;53.132;6.574;2023-07-13T03:01:42;15.00;99.90
57753;DHT22;43583;53.132;6.574;2023-07-13T03:04:07;14.90;99.90
57753;DHT22;43583;53.132;6.574;2023-07-13T03:06:33;14.80;99.90
57753;DHT22;43583;53.132;6.574;2023-07-13T03:08:59;14.80;99.90
57753;DHT22;43583;53.132;6.574;2023-07-13T03:11:25;14.80;99.90
57753;DHT22;43583;53.132;6.574;2023-07-13T03:13:52;14.70;99.90
57753;DHT22;43583;53.132;6.574;2023-07-13T03:16:18;14.70;99.90
57753;DHT22;43583;53.132;6.574;2023-07-13T03:18:43;14.70;99.90
57753;DHT22;43583;53.132;6.574;2023-07-13T03:21:09;14.70;99.90
57753;DHT22;43583;53.132;6.574;2023-07-13T03:23:35;14.60;99.90
57753;DHT22;43583;53.132;6.574;2023-07-13T03:26:10;14.60;99.90
57753;DHT22;43583;53.132;6.574;2023-07-13T03:28:38;14.60;99.90
57753;DHT22;43583;53.132;6.574;2023-07-13T03:31:10;14.60;99.90
57753;DHT22;43583;53.132;6.574;2023-07-13T03:33:36;14.60;99.90
57753;DHT22;43583;53.132;6.574;2023-07-13T03:36:04;14.60;99.90
57753;DHT22;43583;53.132;6.574;2023-07-13T03:38:30;14.60;99.90
57753;DHT22;43583;53.132;6.574;2023-07-13T03:40:55;14.60;99.90
57753;DHT22;43583;53.132;6.574;2023-07-13T03:43:21;14.70;99.90
57753;DHT22;43583;53.132;6.574;2023-07-13T03:45:47;14.80;99.90
57753;DHT22;43583;53.132;6.574;2023-07-13T03:48:13;14.90;99.90
57753;DHT22;43583;53.132;6.574;2023-07-13T03:50:39;15.00;99.90
57753;DHT22;43583;53.132;6.574;2023-07-13T03:53:05;15.00;99.90
57753;DHT22;43583;53.132;6.574;2023-07-13T03:55:30;15.10;99.90
57753;DHT22;43583;53.132;6.574;2023-07-13T03:58:23;15.10;99.90
57753;DHT22;43583;53.132;6.574;2023-07-13T04:00:48;15.20;99.90
57753;DHT22;43583;53.132;6.574;2023-07-13T04:03:15;15.10;99.90
57753;DHT22;43583;53.132;6.574;2023-07-13T04:05:41;15.20;99.90
57753;DHT22;43583;53.132;6.574;2023-07-13T04:08:07;15.20;99.90
57753;DHT22;43583;53.132;6.574;2023-07-13T04:10:33;15.20;99.90
57753;DHT22;43583;53.132;6.574;2023-07-13T04:12:58;15.20;99.90
57753;DHT22;43583;53.132;6.574;2023-07-13T04:15:24;15.20;99.90
57753;DHT22;43583;53.132;6.574;2023-07-13T04:17:49;15.30;99.90
57753;DHT22;43583;53.132;6.574;2023-07-13T04:20:15;15.40;99.90
57753;DHT22;43583;53.132;6.574;2023-07-13T04:22:40;15.40;99.90
57753;DHT22;43583;53.132;6.574;2023-07-13T04:25:06;15.50;99.90
57753;DHT22;43583;53.132;6.574;2023-07-13T04:27:32;15.50;99.90
57753;DHT22;43583;53.132;6.574;2023-07-13T04:29:57;15.60;99.90
57753;DHT22;43583;53.132;6.574;2023-07-13T04:32:23;15.60;99.90
57753;DHT22;43583;53.132;6.574;2023-07-13T04:34:48;15.80;99.90
57753;DHT22;43583;53.132;6.574;2023-07-13T04:37:18;16.10;99.90
57753;DHT22;43583;53.132;6.574;2023-07-13T04:39:44;16.40;99.90
57753;DHT22;43583;53.132;6.574;2023-07-13T04:42:09;16.70;99.90
57753;DHT22;43583;53.132;6.574;2023-07-13T04:44:35;16.90;99.90
57753;DHT22;43583;53.132;6.574;2023-07-13T04:47:00;17.00;99.90
57753;DHT22;43583;53.132;6.574;2023-07-13T04:49:26;17.00;99.90
57753;DHT22;43583;53.132;6.574;2023-07-13T04:51:51;17.00;99.90
57753;DHT22;43583;53.132;6.574;2023-07-13T04:54:17;17.10;99.90
57753;DHT22;43583;53.132;6.574;2023-07-13T04:56:42;17.40;99.90
57753;DHT22;43583;53.132;6.574;2023-07-13T04:59:08;17.70;99.90
57753;DHT22;43583;53.132;6.574;2023-07-13T05:01:33;18.00;99.90
57753;DHT22;43583;53.132;6.574;2023-07-13T05:03:59;18.10;99.90
57753;DHT22;43583;53.132;6.574;2023-07-13T05:06:25;18.10;99.90
57753;DHT22;43583;53.132;6.574;2023-07-13T05:08:51;18.50;99.90
57753;DHT22;43583;53.132;6.574;2023-07-13T05:11:18;19.10;99.90
57753;DHT22;43583;53.132;6.574;2023-07-13T05:13:43;19.90;99.90
57753;DHT22;43583;53.132;6.574;2023-07-13T05:16:09;20.70;99.90
57753;DHT22;43583;53.132;6.574;2023-07-13T05:18:35;21.30;99.90
57753;DHT22;43583;53.132;6.574;2023-07-13T05:21:03;21.40;99.90
57753;DHT22;43583;53.132;6.574;2023-07-13T05:23:29;21.10;99.90
57753;DHT22;43583;53.132;6.574;2023-07-13T05:25:55;20.60;99.90
57753;DHT22;43583;53.132;6.574;2023-07-13T05:28:21;20.30;99.90
57753;DHT22;43583;53.132;6.574;2023-07-13T05:30:48;20.30;99.90
57753;DHT22;43583;53.132;6.574;2023-07-13T05:33:14;20.90;99.90
57753;DHT22;43583;53.132;6.574;2023-07-13T05:35:40;21.60;99.90
57753;DHT22;43583;53.132;6.574;2023-07-13T05:38:05;22.50;99.90
57753;DHT22;43583;53.132;6.574;2023-07-13T05:40:31;23.20;99.90
57753;DHT22;43583;53.132;6.574;2023-07-13T05:42:57;23.90;99.90
57753;DHT22;43583;53.132;6.574;2023-07-13T05:45:23;24.50;99.90
57753;DHT22;43583;53.132;6.574;2023-07-13T05:47:48;25.10;99.90
57753;DHT22;43583;53.132;6.574;2023-07-13T05:50:14;25.70;99.90
57753;DHT22;43583;53.132;6.574;2023-07-13T05:52:39;26.30;99.90
57753;DHT22;43583;53.132;6.574;2023-07-13T05:55:05;26.80;99.90
57753;DHT22;43583;53.132;6.574;2023-07-13T05:57:31;27.20;99.90
57753;DHT22;43583;53.132;6.574;2023-07-13T05:59:57;27.60;99.90
57753;DHT22;43583;53.132;6.574;2023-07-13T06:02:22;27.80;99.90
57753;DHT22;43583;53.132;6.574;2023-07-13T06:04:48;28.10;99.90
57753;DHT22;43583;53.132;6.574;2023-07-13T06:07:14;28.30;99.90
57753;DHT22;43583;53.132;6.574;2023-07-13T06:09:40;28.50;99.90
57753;DHT22;43583;53.132;6.574;2023-07-13T06:12:06;28.70;99.90
57753;DHT22;43583;53.132;6.574;2023-07-13T06:14:31;28.90;99.90
57753;DHT22;43583;53.132;6.574;2023-07-13T06:16:57;29.10;99.90
57753;DHT22;43583;53.132;6.574;2023-07-13T06:19:23;29.30;99.90
57753;DHT22;43583;53.132;6.574;2023-07-13T06:21:49;29.40;99.90
57753;DHT22;43583;53.132;6.574;2023-07-13T06:24:14;29.50;99.50
57753;DHT22;43583;53.132;6.574;2023-07-13T06:26:40;29.60;98.80
57753;DHT22;43583;53.132;6.574;2023-07-13T06:29:05;30.00;98.50
57753;DHT22;43583;53.132;6.574;2023-07-13T06:31:31;30.30;98.30
57753;DHT22;43583;53.132;6.574;2023-07-13T06:33:57;30.30;97.60
57753;DHT22;43583;53.132;6.574;2023-07-13T06:36:22;30.50;96.80
57753;DHT22;43583;53.132;6.574;2023-07-13T06:38:48;30.50;96.00
57753;DHT22;43583;53.132;6.574;2023-07-13T06:41:13;30.80;95.80
57753;DHT22;43583;53.132;6.574;2023-07-13T06:43:39;30.70;95.40
57753;DHT22;43583;53.132;6.574;2023-07-13T06:46:05;30.00;94.90
57753;DHT22;43583;53.132;6.574;2023-07-13T06:48:30;28.80;95.40
57753;DHT22;43583;53.132;6.574;2023-07-13T06:50:56;27.80;96.40
57753;DHT22;43583;53.132;6.574;2023-07-13T06:53:22;27.70;97.40
57753;DHT22;43583;53.132;6.574;2023-07-13T06:55:48;27.50;97.70
57753;DHT22;43583;53.132;6.574;2023-07-13T06:58:16;28.00;98.20
57753;DHT22;43583;53.132;6.574;2023-07-13T07:00:42;28.80;97.60
57753;DHT22;43583;53.132;6.574;2023-07-13T07:03:07;29.40;96.80
57753;DHT22;43583;53.132;6.574;2023-07-13T07:05:33;29.90;96.00
57753;DHT22;43583;53.132;6.574;2023-07-13T07:07:59;29.70;95.30
57753;DHT22;43583;53.132;6.574;2023-07-13T07:10:26;29.00;94.90
57753;DHT22;43583;53.132;6.574;2023-07-13T07:12:51;28.00;95.30
57753;DHT22;43583;53.132;6.574;2023-07-13T07:15:18;27.10;96.70
57753;DHT22;43583;53.132;6.574;2023-07-13T07:17:43;26.60;98.10
57753;DHT22;43583;53.132;6.574;2023-07-13T07:20:10;26.10;97.90
57753;DHT22;43583;53.132;6.574;2023-07-13T07:22:36;25.20;98.30
57753;DHT22;43583;53.132;6.574;2023-07-13T07:25:01;24.40;99.30
57753;DHT22;43583;53.132;6.574;2023-07-13T07:27:27;23.70;99.90
57753;DHT22;43583;53.132;6.574;2023-07-13T07:29:53;23.10;99.90
57753;DHT22;43583;53.132;6.574;2023-07-13T07:32:19;22.80;99.90
57753;DHT22;43583;53.132;6.574;2023-07-13T07:34:45;22.80;99.90
57753;DHT22;43583;53.132;6.574;2023-07-13T07:37:12;23.30;99.90
57753;DHT22;43583;53.132;6.574;2023-07-13T07:39:38;24.80;99.90
57753;DHT22;43583;53.132;6.574;2023-07-13T07:42:04;26.20;99.90
57753;DHT22;43583;53.132;6.574;2023-07-13T07:44:31;27.80;99.90
57753;DHT22;43583;53.132;6.574;2023-07-13T07:46:57;28.70;99.90
57753;DHT22;43583;53.132;6.574;2023-07-13T07:49:22;28.30;97.60
57753;DHT22;43583;53.132;6.574;2023-07-13T07:51:48;27.40;97.10
57753;DHT22;43583;53.132;6.574;2023-07-13T07:54:13;26.40;97.50
57753;DHT22;43583;53.132;6.574;2023-07-13T07:56:40;25.60;98.40
57753;DHT22;43583;53.132;6.574;2023-07-13T07:59:05;25.00;99.50
57753;DHT22;43583;53.132;6.574;2023-07-13T08:01:31;24.30;99.90
57753;DHT22;43583;53.132;6.574;2023-07-13T08:03:57;23.80;99.90
57753;DHT22;43583;53.132;6.574;2023-07-13T08:06:23;23.60;99.90
57753;DHT22;43583;53.132;6.574;2023-07-13T08:08:48;23.30;99.90
57753;DHT22;43583;53.132;6.574;2023-07-13T08:11:14;23.30;99.90
57753;DHT22;43583;53.132;6.574;2023-07-13T08:13:40;23.30;99.90
57753;DHT22;43583;53.132;6.574;2023-07-13T08:16:06;23.20;99.90
57753;DHT22;43583;53.132;6.574;2023-07-13T08:18:32;23.00;99.90
57753;DHT22;43583;53.132;6.574;2023-07-13T08:20:58;23.20;99.90
57753;DHT22;43583;53.132;6.574;2023-07-13T08:23:25;23.50;99.90
57753;DHT22;43583;53.132;6.574;2023-07-13T08:25:52;24.00;99.90
57753;DHT22;43583;53.132;6.574;2023-07-13T08:28:19;24.50;99.90
57753;DHT22;43583;53.132;6.574;2023-07-13T08:30:45;24.60;99.90
57753;DHT22;43583;53.132;6.574;2023-07-13T08:33:14;24.40;99.90
57753;DHT22;43583;53.132;6.574;2023-07-13T08:35:40;24.30;99.90
57753;DHT22;43583;53.132;6.574;2023-07-13T08:38:06;24.30;99.90
57753;DHT22;43583;53.132;6.574;2023-07-13T08:40:31;24.40;99.90
57753;DHT22;43583;53.132;6.574;2023-07-13T08:42:59;24.50;99.90
57753;DHT22;43583;53.132;6.574;2023-07-13T08:45:28;24.60;99.90
57753;DHT22;43583;53.132;6.574;2023-07-13T08:48:01;24.40;99.90
57753;DHT22;43583;53.132;6.574;2023-07-13T08:50:31;24.20;99.90
57753;DHT22;43583;53.132;6.574;2023-07-13T08:52:58;24.20;99.90
57753;DHT22;43583;53.132;6.574;2023-07-13T08:55:28;24.40;99.90
57753;DHT22;43583;53.132;6.574;2023-07-13T08:58:05;24.80;99.90
57753;DHT22;43583;53.132;6.574;2023-07-13T09:01:10;25.50;99.90
57753;DHT22;43583;53.132;6.574;2023-07-13T09:07:00;27.20;99.30
57753;DHT22;43583;53.132;6.574;2023-07-13T09:14:53;25.80;97.00
57753;DHT22;43583;53.132;6.574;2023-07-13T09:17:26;25.20;97.70
57753;DHT22;43583;53.132;6.574;2023-07-13T09:19:59;24.80;98.10
57753;DHT22;43583;53.132;6.574;2023-07-13T09:22:26;24.20;99.50
57753;DHT22;43583;53.132;6.574;2023-07-13T09:25:40;24.10;99.90
57753;DHT22;43583;53.132;6.574;2023-07-13T09:27:47;24.30;99.90
57753;DHT22;43583;53.132;6.574;2023-07-13T09:32:43;24.70;99.90
57753;DHT22;43583;53.132;6.574;2023-07-13T09:35:12;24.80;99.90
57753;DHT22;43583;53.132;6.574;2023-07-13T09:37:38;24.70;99.90
57753;DHT22;43583;53.132;6.574;2023-07-13T09:40:21;24.50;99.90
57753;DHT22;43583;53.132;6.574;2023-07-13T09:42:52;24.00;99.90
57753;DHT22;43583;53.132;6.574;2023-07-13T09:45:27;23.50;99.90
57753;DHT22;43583;53.132;6.574;2023-07-13T09:48:06;23.30;99.90
57753;DHT22;43583;53.132;6.574;2023-07-13T09:50:33;22.90;99.90
57753;DHT22;43583;53.132;6.574;2023-07-13T09:53:01;22.60;99.90
57753;DHT22;43583;53.132;6.574;2023-07-13T09:55:36;22.40;99.90
57753;DHT22;43583;53.132;6.574;2023-07-13T09:58:05;22.20;99.90
57753;DHT22;43583;53.132;6.574;2023-07-13T10:00:32;22.10;99.90
57753;DHT22;43583;53.132;6.574;2023-07-13T10:05:49;21.70;99.90
57753;DHT22;43583;53.132;6.574;2023-07-13T10:08:29;21.60;99.90
57753;DHT22;43583;53.132;6.574;2023-07-13T10:11:00;21.50;99.90
57753;DHT22;43583;53.132;6.574;2023-07-13T10:13:37;21.40;99.90
57753;DHT22;43583;53.132;6.574;2023-07-13T10:16:06;21.70;99.90
57753;DHT22;43583;53.132;6.574;2023-07-13T10:18:44;21.70;99.90
57753;DHT22;43583;53.132;6.574;2023-07-13T10:21:19;22.20;99.90
57753;DHT22;43583;53.132;6.574;2023-07-13T10:23:55;22.70;99.90
57753;DHT22;43583;53.132;6.574;2023-07-13T10:26:29;23.10;99.90
57753;DHT22;43583;53.132;6.574;2023-07-13T10:28:57;23.20;99.90
57753;DHT22;43583;53.132;6.574;2023-07-13T10:31:24;22.80;99.90
57753;DHT22;43583;53.132;6.574;2023-07-13T10:33:50;22.70;99.90
57753;DHT22;43583;53.132;6.574;2023-07-13T10:36:40;22.40;99.90
57753;DHT22;43583;53.132;6.574;2023-07-13T10:39:06;22.30;99.90
57753;DHT22;43583;53.132;6.574;2023-07-13T10:41:38;22.30;99.90
57753;DHT22;43583;53.132;6.574;2023-07-13T10:44:13;22.30;99.90
57753;DHT22;43583;53.132;6.574;2023-07-13T10:46:41;22.20;99.90
57753;DHT22;43583;53.132;6.574;2023-07-13T10:49:11;22.10;99.90
57753;DHT22;43583;53.132;6.574;2023-07-13T10:51:37;22.10;99.90
57753;DHT22;43583;53.132;6.574;2023-07-13T10:56:43;22.40;99.90
57753;DHT22;43583;53.132;6.574;2023-07-13T11:01:54;22.40;99.90
57753;DHT22;43583;53.132;6.574;2023-07-13T11:04:21;22.30;99.90
57753;DHT22;43583;53.132;6.574;2023-07-13T11:06:52;22.10;99.90
57753;DHT22;43583;53.132;6.574;2023-07-13T11:09:39;21.80;99.90
57753;DHT22;43583;53.132;6.574;2023-07-13T11:20:30;23.30;99.90
57753;DHT22;43583;53.132;6.574;2023-07-13T11:23:26;23.90;99.90
57753;DHT22;43583;53.132;6.574;2023-07-13T11:25:52;23.70;99.90
57753;DHT22;43583;53.132;6.574;2023-07-13T11:28:23;23.40;99.90
57753;DHT22;43583;53.132;6.574;2023-07-13T11:33:56;23.30;99.90
57753;DHT22;43583;53.132;6.574;2023-07-13T11:36:27;23.30;99.90
57753;DHT22;43583;53.132;6.574;2023-07-13T11:38:56;23.70;99.90
57753;DHT22;43583;53.132;6.574;2023-07-13T11:41:42;24.20;99.90
57753;DHT22;43583;53.132;6.574;2023-07-13T11:44:14;24.70;99.90
57753;DHT22;43583;53.132;6.574;2023-07-13T11:46:45;25.10;99.90
57753;DHT22;43583;53.132;6.574;2023-07-13T11:49:16;25.20;99.90
57753;DHT22;43583;53.132;6.574;2023-07-13T11:51:42;25.30;99.90
57753;DHT22;43583;53.132;6.574;2023-07-13T11:54:30;25.40;99.90
57753;DHT22;43583;53.132;6.574;2023-07-13T11:57:05;25.50;99.90
57753;DHT22;43583;53.132;6.574;2023-07-13T11:59:32;25.00;98.50
57753;DHT22;43583;53.132;6.574;2023-07-13T12:01:59;24.60;98.70
57753;DHT22;43583;53.132;6.574;2023-07-13T12:04:32;24.30;98.00
57753;DHT22;43583;53.132;6.574;2023-07-13T12:07:15;23.90;97.40
57753;DHT22;43583;53.132;6.574;2023-07-13T12:09:42;23.70;98.10
57753;DHT22;43583;53.132;6.574;2023-07-13T12:12:18;23.90;99.80
57753;DHT22;43583;53.132;6.574;2023-07-13T12:14:44;24.30;99.90
57753;DHT22;43583;53.132;6.574;2023-07-13T12:17:22;24.30;99.80
57753;DHT22;43583;53.132;6.574;2023-07-13T12:19:50;24.60;99.90
57753;DHT22;43583;53.132;6.574;2023-07-13T12:22:17;24.70;99.70
57753;DHT22;43583;53.132;6.574;2023-07-13T12:24:44;24.90;99.90
57753;DHT22;43583;53.132;6.574;2023-07-13T12:27:21;25.00;99.00
57753;DHT22;43583;53.132;6.574;2023-07-13T12:29:59;25.10;98.60
57753;DHT22;43583;53.132;6.574;2023-07-13T12:32:26;25.10;96.20
57753;DHT22;43583;53.132;6.574;2023-07-13T12:35:07;24.90;97.40
57753;DHT22;43583;53.132;6.574;2023-07-13T12:37:42;24.70;96.40
57753;DHT22;43583;53.132;6.574;2023-07-13T12:40:15;24.60;95.20
57753;DHT22;43583;53.132;6.574;2023-07-13T12:42:40;24.20;95.10
57753;DHT22;43583;53.132;6.574;2023-07-13T12:45:21;24.20;95.90
57753;DHT22;43583;53.132;6.574;2023-07-13T12:47:49;24.30;95.30
57753;DHT22;43583;53.132;6.574;2023-07-13T12:50:18;24.30;96.00
57753;DHT22;43583;53.132;6.574;2023-07-13T12:52:50;24.50;96.30
57753;DHT22;43583;53.132;6.574;2023-07-13T12:55:19;24.70;96.30
57753;DHT22;43583;53.132;6.574;2023-07-13T12:57:56;24.90;96.40
57753;DHT22;43583;53.132;6.574;2023-07-13T13:00:33;24.80;94.30
57753;DHT22;43583;53.132;6.574;2023-07-13T13:03:30;24.60;94.50
57753;DHT22;43583;53.132;6.574;2023-07-13T13:05:59;24.40;95.20
57753;DHT22;43583;53.132;6.574;2023-07-13T13:08:25;24.10;95.80
57753;DHT22;43583;53.132;6.574;2023-07-13T13:10:51;24.10;96.20
57753;DHT22;43583;53.132;6.574;2023-07-13T13:13:16;24.20;96.40
57753;DHT22;43583;53.132;6.574;2023-07-13T13:15:42;24.30;97.00
57753;DHT22;43583;53.132;6.574;2023-07-13T13:18:22;24.50;96.80
57753;DHT22;43583;53.132;6.574;2023-07-13T13:20:50;24.90;97.70
57753;DHT22;43583;53.132;6.574;2023-07-13T13:23:17;25.10;97.00
57753;DHT22;43583;53.132;6.574;2023-07-13T13:25:45;25.10;96.40
57753;DHT22;43583;53.132;6.574;2023-07-13T13:28:16;25.00;95.50
57753;DHT22;43583;53.132;6.574;2023-07-13T13:30:43;24.70;95.40
57753;DHT22;43583;53.132;6.574;2023-07-13T13:33:13;24.60;95.40
57753;DHT22;43583;53.132;6.574;2023-07-13T13:35:40;24.60;95.10
57753;DHT22;43583;53.132;6.574;2023-07-13T13:38:17;24.60;95.20
57753;DHT22;43583;53.132;6.574;2023-07-13T13:40:45;24.70;95.60
57753;DHT22;43583;53.132;6.574;2023-07-13T13:43:24;24.70;95.70
57753;DHT22;43583;53.132;6.574;2023-07-13T13:45:57;24.30;94.50
57753;DHT22;43583;53.132;6.574;2023-07-13T13:48:31;23.90;94.40
57753;DHT22;43583;53.132;6.574;2023-07-13T13:50:57;23.80;94.20
57753;DHT22;43583;53.132;6.574;2023-07-13T13:53:23;23.90;95.60
57753;DHT22;43583;53.132;6.574;2023-07-13T13:55:51;23.80;95.10
57753;DHT22;43583;53.132;6.574;2023-07-13T13:58:18;23.80;95.50
57753;DHT22;43583;53.132;6.574;2023-07-13T14:00:44;23.80;95.70
57753;DHT22;43583;53.132;6.574;2023-07-13T14:03:19;24.10;96.20
57753;DHT22;43583;53.132;6.574;2023-07-13T14:05:45;24.30;96.40
57753;DHT22;43583;53.132;6.574;2023-07-13T14:08:17;24.60;96.40
57753;DHT22;43583;53.132;6.574;2023-07-13T14:10:45;24.70;96.00
57753;DHT22;43583;53.132;6.574;2023-07-13T14:13:35;24.50;95.30
57753;DHT22;43583;53.132;6.574;2023-07-13T14:16:02;24.50;96.10
57753;DHT22;43583;53.132;6.574;2023-07-13T14:18:27;24.70;96.10
57753;DHT22;43583;53.132;6.574;2023-07-13T14:20:53;24.70;95.30
57753;DHT22;43583;53.132;6.574;2023-07-13T14:23:18;24.80;95.20
57753;DHT22;43583;53.132;6.574;2023-07-13T14:25:45;25.00;95.70
57753;DHT22;43583;53.132;6.574;2023-07-13T14:28:24;25.00;95.40
57753;DHT22;43583;53.132;6.574;2023-07-13T14:30:51;24.90;94.00
57753;DHT22;43583;53.132;6.574;2023-07-13T14:33:17;24.80;94.70
57753;DHT22;43583;53.132;6.574;2023-07-13T14:35:43;24.70;94.70
57753;DHT22;43583;53.132;6.574;2023-07-13T14:38:15;24.80;95.00
57753;DHT22;43583;53.132;6.574;2023-07-13T14:40:42;24.80;95.00
57753;DHT22;43583;53.132;6.574;2023-07-13T14:43:12;24.80;94.70
57753;DHT22;43583;53.132;6.574;2023-07-13T14:45:41;24.50;94.60
57753;DHT22;43583;53.132;6.574;2023-07-13T14:48:21;24.30;94.90
57753;DHT22;43583;53.132;6.574;2023-07-13T14:50:55;24.10;94.30
57753;DHT22;43583;53.132;6.574;2023-07-13T14:53:22;23.80;94.90
57753;DHT22;43583;53.132;6.574;2023-07-13T14:55:48;23.70;95.40
57753;DHT22;43583;53.132;6.574;2023-07-13T14:58:14;23.50;95.30
57753;DHT22;43583;53.132;6.574;2023-07-13T15:00:39;23.30;95.70
57753;DHT22;43583;53.132;6.574;2023-07-13T15:03:16;23.20;96.50
57753;DHT22;43583;53.132;6.574;2023-07-13T15:05:44;23.20;97.20
57753;DHT22;43583;53.132;6.574;2023-07-13T15:08:10;23.40;97.10
57753;DHT22;43583;53.132;6.574;2023-07-13T15:10:36;23.70;97.10
57753;DHT22;43583;53.132;6.574;2023-07-13T15:13:17;23.80;97.10
57753;DHT22;43583;53.132;6.574;2023-07-13T15:15:47;23.90;96.90
57753;DHT22;43583;53.132;6.574;2023-07-13T15:18:15;23.90;96.90
57753;DHT22;43583;53.132;6.574;2023-07-13T15:20:43;23.70;95.80
57753;DHT22;43583;53.132;6.574;2023-07-13T15:23:10;23.70;95.70
57753;DHT22;43583;53.132;6.574;2023-07-13T15:25:36;23.70;96.20
57753;DHT22;43583;53.132;6.574;2023-07-13T15:28:02;23.70;96.30
57753;DHT22;43583;53.132;6.574;2023-07-13T15:30:36;23.50;95.80
57753;DHT22;43583;53.132;6.574;2023-07-13T15:33:12;23.40;96.00
57753;DHT22;43583;53.132;6.574;2023-07-13T15:35:39;23.40;96.60
57753;DHT22;43583;53.132;6.574;2023-07-13T15:38:27;23.40;96.80
57753;DHT22;43583;53.132;6.574;2023-07-13T15:40:53;23.50;97.60
57753;DHT22;43583;53.132;6.574;2023-07-13T15:43:20;23.30;96.60
57753;DHT22;43583;53.132;6.574;2023-07-13T15:45:47;23.10;96.30
57753;DHT22;43583;53.132;6.574;2023-07-13T15:48:15;22.80;96.20
57753;DHT22;43583;53.132;6.574;2023-07-13T15:50:48;22.80;96.70
57753;DHT22;43583;53.132;6.574;2023-07-13T15:53:25;23.00;96.90
57753;DHT22;43583;53.132;6.574;2023-07-13T15:55:52;22.90;96.80
57753;DHT22;43583;53.132;6.574;2023-07-13T15:58:18;22.80;96.90
57753;DHT22;43583;53.132;6.574;2023-07-13T16:00:45;22.70;96.40
57753;DHT22;43583;53.132;6.574;2023-07-13T16:03:11;22.90;97.30
57753;DHT22;43583;53.132;6.574;2023-07-13T16:05:37;22.80;97.30
57753;DHT22;43583;53.132;6.574;2023-07-13T16:08:05;22.80;97.20
57753;DHT22;43583;53.132;6.574;2023-07-13T16:10:36;22.70;97.50
57753;DHT22;43583;53.132;6.574;2023-07-13T16:13:13;22.70;97.90